sensor_id;sensor_type;location;lat;lon;timestamp;temperature;humidity
44990;DHT22;30723;51.206;3.326;2023-07-22T00:01:36;16.80;99.90
44990;DHT22;30723;51.206;3.326;2023-07-22T00:04:03;16.80;99.90
44990;DHT22;30723;51.206;3.326;2023-07-22T00:06:30;16.80;99.90
44990;DHT22;30723;51.206;3.326;2023-07-22T00:08:55;16.70;99.90
44990;DHT22;30723;51.206;3.326;2023-07-22T00:11:22;16.70;99.90
44990;DHT22;30723;51.206;3.326;2023-07-22T00:13:48;16.60;99.90
44990;DHT22;30723;51.206;3.326;2023-07-22T00:16:14;16.60;99.90
44990;DHT22;30723;51.206;3.326;2023-07-22T00:18:40;16.60;99.90
44990;DHT22;30723;51.206;3.326;2023-07-22T00:21:07;16.60;99.90
44990;DHT22;30723;51.206;3.326;2023-07-22T00:23:35;16.60;99.90
44990;DHT22;30723;51.206;3.326;2023-07-22T00:26:02;16.60;99.90
44990;DHT22;30723;51.206;3.326;2023-07-22T00:28:34;16.60;99.90
44990;DHT22;30723;51.206;3.326;2023-07-22T00:31:03;16.50;99.90
44990;DHT22;30723;51.206;3.326;2023-07-22T00:33:29;16.50;99.90
44990;DHT22;30723;51.206;3.326;2023-07-22T00:35:54;16.40;99.90
44990;DHT22;30723;51.206;3.326;2023-07-22T00:38:22;16.40;99.90
44990;DHT22;30723;51.206;3.326;2023-07-22T00:40:48;16.40;99.90
44990;DHT22;30723;51.206;3.326;2023-07-22T00:43:15;16.40;99.90
44990;DHT22;30723;51.206;3.326;2023-07-22T00:45:43;16.40;99.90
44990;DHT22;30723;51.206;3.326;2023-07-22T00:48:10;16.40;99.90
44990;DHT22;30723;51.206;3.326;2023-07-22T00:50:37;16.40;99.90
44990;DHT22;30723;51.206;3.326;2023-07-22T00:53:12;16.40;99.90
44990;DHT22;30723;51.206;3.326;2023-07-22T00:55:40;16.40;99.90
44990;DHT22;30723;51.206;3.326;2023-07-22T00:58:06;16.40;99.90
44990;DHT22;30723;51.206;3.326;2023-07-22T01:00:33;16.30;99.90
44990;DHT22;30723;51.206;3.326;2023-07-22T01:02:59;16.30;99.90
44990;DHT22;30723;51.206;3.326;2023-07-22T01:05:27;16.30;99.90
44990;DHT22;30723;51.206;3.326;2023-07-22T01:07:53;16.20;99.90
44990;DHT22;30723;51.206;3.326;2023-07-22T01:10:19;16.20;99.90
44990;DHT22;30723;51.206;3.326;2023-07-22T01:12:46;16.20;99.90
44990;DHT22;30723;51.206;3.326;2023-07-22T01:15:13;16.10;99.90
44990;DHT22;30723;51.206;3.326;2023-07-22T01:17:40;16.10;99.90
44990;DHT22;30723;51.206;3.326;2023-07-22T01:20:08;16.10;99.90
44990;DHT22;30723;51.206;3.326;2023-07-22T01:22:37;16.10;99.90
44990;DHT22;30723;51.206;3.326;2023-07-22T01:25:05;16.10;99.90
44990;DHT22;30723;51.206;3.326;2023-07-22T01:27:33;16.00;99.90
44990;DHT22;30723;51.206;3.326;2023-07-22T01:30:00;15.90;99.90
44990;DHT22;30723;51.206;3.326;2023-07-22T01:32:29;16.00;99.90
44990;DHT22;30723;51.206;3.326;2023-07-22T01:34:56;16.00;99.90
44990;DHT22;30723;51.206;3.326;2023-07-22T01:37:23;15.90;99.90
44990;DHT22;30723;51.206;3.326;2023-07-22T01:39:49;16.00;99.90
44990;DHT22;30723;51.206;3.326;2023-07-22T01:42:17;16.00;99.90
44990;DHT22;30723;51.206;3.326;2023-07-22T01:44:44;15.90;99.90
44990;DHT22;30723;51.206;3.326;2023-07-22T01:47:10;15.90;99.90
44990;DHT22;30723;51.206;3.326;2023-07-22T01:49:37;15.90;99.90
44990;DHT22;30723;51.206;3.326;2023-07-22T01:52:04;15.90;99.90
44990;DHT22;30723;51.206;3.326;2023-07-22T01:54:31;15.90;99.90
44990;DHT22;30723;51.206;3.326;2023-07-22T01:56:58;15.90;99.90
44990;DHT22;30723;51.206;3.326;2023-07-22T01:59:23;15.90;99.90
44990;DHT22;30723;51.206;3.326;2023-07-22T02:01:50;15.90;99.90
44990;DHT22;30723;51.206;3.326;2023-07-22T02:04:18;15.90;99.90
44990;DHT22;30723;51.206;3.326;2023-07-22T02:06:44;15.90;99.90
44990;DHT22;30723;51.206;3.326;2023-07-22T02:09:11;15.90;99.90
44990;DHT22;30723;51.206;3.326;2023-07-22T02:11:40;15.90;99.90
44990;DHT22;30723;51.206;3.326;2023-07-22T02:14:06;15.90;99.90
44990;DHT22;30723;51.206;3.326;2023-07-22T02:16:37;15.90;99.90
44990;DHT22;30723;51.206;3.326;2023-07-22T02:19:04;15.80;99.90
44990;DHT22;30723;51.206;3.326;2023-07-22T02:21:30;15.80;99.90
44990;DHT22;30723;51.206;3.326;2023-07-22T02:23:57;15.80;99.90
44990;DHT22;30723;51.206;3.326;2023-07-22T02:26:24;15.70;99.90
44990;DHT22;30723;51.206;3.326;2023-07-22T02:28:50;15.70;99.90
44990;DHT22;30723;51.206;3.326;2023-07-22T02:31:17;15.70;99.90
44990;DHT22;30723;51.206;3.326;2023-07-22T02:33:44;15.60;99.90
44990;DHT22;30723;51.206;3.326;2023-07-22T02:36:11;15.70;99.90
44990;DHT22;30723;51.206;3.326;2023-07-22T02:38:38;15.70;99.90
44990;DHT22;30723;51.206;3.326;2023-07-22T02:41:05;15.70;99.90
44990;DHT22;30723;51.206;3.326;2023-07-22T02:43:34;15.70;99.90
44990;DHT22;30723;51.206;3.326;2023-07-22T02:46:04;15.60;99.90
44990;DHT22;30723;51.206;3.326;2023-07-22T02:48:34;15.50;99.90
44990;DHT22;30723;51.206;3.326;2023-07-22T02:51:08;15.60;99.90
44990;DHT22;30723;51.206;3.326;2023-07-22T02:53:36;15.60;99.90
44990;DHT22;30723;51.206;3.326;2023-07-22T02:56:06;15.50;99.90
44990;DHT22;30723;51.206;3.326;2023-07-22T02:58:33;15.50;99.90
44990;DHT22;30723;51.206;3.326;2023-07-22T03:01:00;15.50;99.90
44990;DHT22;30723;51.206;3.326;2023-07-22T03:03:28;15.40;99.90
44990;DHT22;30723;51.206;3.326;2023-07-22T03:05:54;15.40;99.90
44990;DHT22;30723;51.206;3.326;2023-07-22T03:08:21;15.40;99.90
44990;DHT22;30723;51.206;3.326;2023-07-22T03:10:47;15.30;99.90
44990;DHT22;30723;51.206;3.326;2023-07-22T03:13:17;15.40;99.90
44990;DHT22;30723;51.206;3.326;2023-07-22T03:15:45;15.30;99.90
44990;DHT22;30723;51.206;3.326;2023-07-22T03:18:12;15.30;99.90
44990;DHT22;30723;51.206;3.326;2023-07-22T03:20:39;15.30;99.90
44990;DHT22;30723;51.206;3.326;2023-07-22T03:23:07;15.30;99.90
44990;DHT22;30723;51.206;3.326;2023-07-22T03:25:35;15.20;99.90
44990;DHT22;30723;51.206;3.326;2023-07-22T03:28:06;15.20;99.90
44990;DHT22;30723;51.206;3.326;2023-07-22T03:30:31;15.20;99.90
44990;DHT22;30723;51.206;3.326;2023-07-22T03:32:58;15.20;99.90
44990;DHT22;30723;51.206;3.326;2023-07-22T03:35:26;15.20;99.90
44990;DHT22;30723;51.206;3.326;2023-07-22T03:37:53;15.20;99.90
44990;DHT22;30723;51.206;3.326;2023-07-22T03:40:20;15.20;99.90
44990;DHT22;30723;51.206;3.326;2023-07-22T03:43:05;15.20;99.90
44990;DHT22;30723;51.206;3.326;2023-07-22T03:45:32;15.20;99.90
44990;DHT22;30723;51.206;3.326;2023-07-22T03:47:59;15.10;99.90
44990;DHT22;30723;51.206;3.326;2023-07-22T03:50:27;15.10;99.90
44990;DHT22;30723;51.206;3.326;2023-07-22T03:52:53;15.10;99.90
44990;DHT22;30723;51.206;3.326;2023-07-22T03:55:20;15.10;99.90
44990;DHT22;30723;51.206;3.326;2023-07-22T03:57:46;15.10;99.90
44990;DHT22;30723;51.206;3.326;2023-07-22T04:00:13;15.00;99.90
44990;DHT22;30723;51.206;3.326;2023-07-22T04:02:39;15.00;99.90
44990;DHT22;30723;51.206;3.326;2023-07-22T04:05:07;15.00;99.90
44990;DHT22;30723;51.206;3.326;2023-07-22T04:07:34;15.00;99.90
44990;DHT22;30723;51.206;3.326;2023-07-22T04:10:00;15.00;99.90
44990;DHT22;30723;51.206;3.326;2023-07-22T04:12:27;15.00;99.90
44990;DHT22;30723;51.206;3.326;2023-07-22T04:14:54;15.00;99.90
44990;DHT22;30723;51.206;3.326;2023-07-22T04:17:20;15.00;99.90
44990;DHT22;30723;51.206;3.326;2023-07-22T04:19:47;15.10;99.90
44990;DHT22;30723;51.206;3.326;2023-07-22T04:22:13;15.00;99.90
44990;DHT22;30723;51.206;3.326;2023-07-22T04:24:40;15.00;99.90
44990;DHT22;30723;51.206;3.326;2023-07-22T04:27:07;15.10;99.90
44990;DHT22;30723;51.206;3.326;2023-07-22T04:29:36;15.00;99.90
44990;DHT22;30723;51.206;3.326;2023-07-22T04:32:03;15.00;99.90
44990;DHT22;30723;51.206;3.326;2023-07-22T04:34:49;15.00;99.90
44990;DHT22;30723;51.206;3.326;2023-07-22T04:37:15;15.00;99.90
44990;DHT22;30723;51.206;3.326;2023-07-22T04:39:46;15.00;99.90
44990;DHT22;30723;51.206;3.326;2023-07-22T04:42:12;15.10;99.90
44990;DHT22;30723;51.206;3.326;2023-07-22T04:44:39;15.00;99.90
44990;DHT22;30723;51.206;3.326;2023-07-22T04:47:07;15.10;99.90
44990;DHT22;30723;51.206;3.326;2023-07-22T04:49:33;15.10;99.90
44990;DHT22;30723;51.206;3.326;2023-07-22T04:52:00;15.20;99.90
44990;DHT22;30723;51.206;3.326;2023-07-22T04:54:26;15.20;99.90
44990;DHT22;30723;51.206;3.326;2023-07-22T04:56:54;15.30;99.90
44990;DHT22;30723;51.206;3.326;2023-07-22T04:59:20;15.30;99.90
44990;DHT22;30723;51.206;3.326;2023-07-22T05:01:47;15.30;99.90
44990;DHT22;30723;51.206;3.326;2023-07-22T05:04:14;15.30;99.90
44990;DHT22;30723;51.206;3.326;2023-07-22T05:06:41;15.30;99.90
44990;DHT22;30723;51.206;3.326;2023-07-22T05:09:07;15.40;99.90
44990;DHT22;30723;51.206;3.326;2023-07-22T05:11:34;15.40;99.90
44990;DHT22;30723;51.206;3.326;2023-07-22T05:14:00;15.40;99.90
44990;DHT22;30723;51.206;3.326;2023-07-22T05:16:27;15.40;99.90
44990;DHT22;30723;51.206;3.326;2023-07-22T05:18:53;15.50;99.90
44990;DHT22;30723;51.206;3.326;2023-07-22T05:21:20;15.50;99.90
44990;DHT22;30723;51.206;3.326;2023-07-22T05:23:46;15.50;99.90
44990;DHT22;30723;51.206;3.326;2023-07-22T05:26:13;15.60;99.90
44990;DHT22;30723;51.206;3.326;2023-07-22T05:28:39;15.80;99.90
44990;DHT22;30723;51.206;3.326;2023-07-22T05:31:06;15.80;99.90
44990;DHT22;30723;51.206;3.326;2023-07-22T05:33:33;15.90;99.90
44990;DHT22;30723;51.206;3.326;2023-07-22T05:36:00;16.00;99.90
44990;DHT22;30723;51.206;3.326;2023-07-22T05:38:27;16.00;99.90
44990;DHT22;30723;51.206;3.326;2023-07-22T05:40:53;16.10;99.90
44990;DHT22;30723;51.206;3.326;2023-07-22T05:43:19;16.20;99.90
44990;DHT22;30723;51.206;3.326;2023-07-22T05:45:44;16.30;99.90
44990;DHT22;30723;51.206;3.326;2023-07-22T05:48:10;16.30;99.90
44990;DHT22;30723;51.206;3.326;2023-07-22T05:50:37;16.40;99.90
44990;DHT22;30723;51.206;3.326;2023-07-22T05:53:03;16.40;99.90
44990;DHT22;30723;51.206;3.326;2023-07-22T05:55:30;16.50;99.90
44990;DHT22;30723;51.206;3.326;2023-07-22T05:57:57;16.50;99.90
44990;DHT22;30723;51.206;3.326;2023-07-22T06:00:24;16.50;99.90
44990;DHT22;30723;51.206;3.326;2023-07-22T06:02:50;16.60;99.90
44990;DHT22;30723;51.206;3.326;2023-07-22T06:05:17;16.60;99.90
44990;DHT22;30723;51.206;3.326;2023-07-22T06:07:44;16.80;99.90
44990;DHT22;30723;51.206;3.326;2023-07-22T06:10:11;17.10;99.90
44990;DHT22;30723;51.206;3.326;2023-07-22T06:12:38;17.30;99.90
44990;DHT22;30723;51.206;3.326;2023-07-22T06:15:06;17.50;99.90
44990;DHT22;30723;51.206;3.326;2023-07-22T06:17:32;17.70;99.90
44990;DHT22;30723;51.206;3.326;2023-07-22T06:19:59;17.80;99.90
44990;DHT22;30723;51.206;3.326;2023-07-22T06:22:26;17.80;99.90
44990;DHT22;30723;51.206;3.326;2023-07-22T06:24:53;18.00;99.90
44990;DHT22;30723;51.206;3.326;2023-07-22T06:27:20;18.20;99.90
44990;DHT22;30723;51.206;3.326;2023-07-22T06:29:46;18.50;99.90
44990;DHT22;30723;51.206;3.326;2023-07-22T06:32:13;18.50;99.90
44990;DHT22;30723;51.206;3.326;2023-07-22T06:34:40;18.70;99.90
44990;DHT22;30723;51.206;3.326;2023-07-22T06:37:07;19.00;99.90
44990;DHT22;30723;51.206;3.326;2023-07-22T06:39:34;19.10;99.90
44990;DHT22;30723;51.206;3.326;2023-07-22T06:42:00;19.40;99.90
44990;DHT22;30723;51.206;3.326;2023-07-22T06:44:26;19.60;99.90
44990;DHT22;30723;51.206;3.326;2023-07-22T06:46:52;19.60;99.90
44990;DHT22;30723;51.206;3.326;2023-07-22T06:49:19;19.70;99.90
44990;DHT22;30723;51.206;3.326;2023-07-22T06:51:45;19.70;99.90
44990;DHT22;30723;51.206;3.326;2023-07-22T06:54:12;19.90;99.90
44990;DHT22;30723;51.206;3.326;2023-07-22T06:56:38;20.00;99.90
44990;DHT22;30723;51.206;3.326;2023-07-22T06:59:05;20.00;99.90
44990;DHT22;30723;51.206;3.326;2023-07-22T07:01:32;20.00;99.90
44990;DHT22;30723;51.206;3.326;2023-07-22T07:03:58;19.90;99.90
44990;DHT22;30723;51.206;3.326;2023-07-22T07:06:24;19.80;99.90
44990;DHT22;30723;51.206;3.326;2023-07-22T07:08:59;19.70;99.90
44990;DHT22;30723;51.206;3.326;2023-07-22T07:11:29;19.60;99.90
44990;DHT22;30723;51.206;3.326;2023-07-22T07:13:56;19.60;99.90
44990;DHT22;30723;51.206;3.326;2023-07-22T07:16:27;19.50;99.90
44990;DHT22;30723;51.206;3.326;2023-07-22T07:18:54;19.50;99.90
44990;DHT22;30723;51.206;3.326;2023-07-22T07:21:22;19.50;99.90
44990;DHT22;30723;51.206;3.326;2023-07-22T07:23:50;19.70;99.90
44990;DHT22;30723;51.206;3.326;2023-07-22T07:26:16;19.60;99.90
44990;DHT22;30723;51.206;3.326;2023-07-22T07:28:42;19.70;99.90
44990;DHT22;30723;51.206;3.326;2023-07-22T07:31:07;19.90;99.90
44990;DHT22;30723;51.206;3.326;2023-07-22T07:33:34;20.00;99.90
44990;DHT22;30723;51.206;3.326;2023-07-22T07:36:00;20.20;99.90
44990;DHT22;30723;51.206;3.326;2023-07-22T07:38:26;20.30;99.90
44990;DHT22;30723;51.206;3.326;2023-07-22T07:40:55;20.40;99.90
44990;DHT22;30723;51.206;3.326;2023-07-22T07:43:21;20.20;99.90
44990;DHT22;30723;51.206;3.326;2023-07-22T07:45:46;20.20;99.90
44990;DHT22;30723;51.206;3.326;2023-07-22T07:48:12;20.20;99.90
44990;DHT22;30723;51.206;3.326;2023-07-22T07:50:38;20.30;99.90
44990;DHT22;30723;51.206;3.326;2023-07-22T07:53:04;20.50;99.90
44990;DHT22;30723;51.206;3.326;2023-07-22T07:55:30;20.60;99.90
44990;DHT22;30723;51.206;3.326;2023-07-22T07:57:57;21.30;99.90
44990;DHT22;30723;51.206;3.326;2023-07-22T08:00:23;22.10;99.90
44990;DHT22;30723;51.206;3.326;2023-07-22T08:02:49;22.50;99.90
44990;DHT22;30723;51.206;3.326;2023-07-22T08:05:15;22.40;99.90
44990;DHT22;30723;51.206;3.326;2023-07-22T08:07:41;22.10;99.90
44990;DHT22;30723;51.206;3.326;2023-07-22T08:10:07;21.70;99.90
44990;DHT22;30723;51.206;3.326;2023-07-22T08:12:35;21.50;99.90
44990;DHT22;30723;51.206;3.326;2023-07-22T08:15:04;21.30;99.90
44990;DHT22;30723;51.206;3.326;2023-07-22T08:17:31;21.30;99.90
44990;DHT22;30723;51.206;3.326;2023-07-22T08:19:58;21.20;99.90
44990;DHT22;30723;51.206;3.326;2023-07-22T08:22:24;21.20;99.90
44990;DHT22;30723;51.206;3.326;2023-07-22T08:24:51;21.40;99.90
44990;DHT22;30723;51.206;3.326;2023-07-22T08:27:17;21.50;99.90
44990;DHT22;30723;51.206;3.326;2023-07-22T08:29:44;21.60;99.90
44990;DHT22;30723;51.206;3.326;2023-07-22T08:32:09;21.60;99.90
44990;DHT22;30723;51.206;3.326;2023-07-22T08:34:36;21.80;99.90
44990;DHT22;30723;51.206;3.326;2023-07-22T08:37:03;22.30;99.90
44990;DHT22;30723;51.206;3.326;2023-07-22T08:39:31;22.30;99.90
44990;DHT22;30723;51.206;3.326;2023-07-22T08:41:59;22.40;99.90
44990;DHT22;30723;51.206;3.326;2023-07-22T08:44:33;22.40;99.90
44990;DHT22;30723;51.206;3.326;2023-07-22T08:47:03;22.30;99.90
44990;DHT22;30723;51.206;3.326;2023-07-22T08:49:31;22.30;99.90
44990;DHT22;30723;51.206;3.326;2023-07-22T08:51:59;23.00;99.90
44990;DHT22;30723;51.206;3.326;2023-07-22T08:54:27;23.30;99.90
44990;DHT22;30723;51.206;3.326;2023-07-22T08:56:53;23.40;99.90
44990;DHT22;30723;51.206;3.326;2023-07-22T08:59:21;23.90;99.90
44990;DHT22;30723;51.206;3.326;2023-07-22T09:01:49;23.90;99.90
44990;DHT22;30723;51.206;3.326;2023-07-22T09:04:14;23.50;99.90
44990;DHT22;30723;51.206;3.326;2023-07-22T09:06:42;23.00;99.90
44990;DHT22;30723;51.206;3.326;2023-07-22T09:09:09;22.80;99.90
44990;DHT22;30723;51.206;3.326;2023-07-22T09:11:37;22.70;99.90
44990;DHT22;30723;51.206;3.326;2023-07-22T09:14:04;22.80;99.90
44990;DHT22;30723;51.206;3.326;2023-07-22T09:16:31;22.90;99.90
44990;DHT22;30723;51.206;3.326;2023-07-22T09:18:59;22.60;99.90
44990;DHT22;30723;51.206;3.326;2023-07-22T09:21:25;22.60;99.90
44990;DHT22;30723;51.206;3.326;2023-07-22T09:23:51;22.50;99.90
44990;DHT22;30723;51.206;3.326;2023-07-22T09:26:18;22.20;99.90
44990;DHT22;30723;51.206;3.326;2023-07-22T09:28:54;21.90;99.90
44990;DHT22;30723;51.206;3.326;2023-07-22T09:31:26;22.40;99.90
44990;DHT22;30723;51.206;3.326;2023-07-22T09:33:52;23.30;99.90
44990;DHT22;30723;51.206;3.326;2023-07-22T09:36:21;23.70;99.90
44990;DHT22;30723;51.206;3.326;2023-07-22T09:39:01;23.60;99.90
44990;DHT22;30723;51.206;3.326;2023-07-22T09:41:30;23.20;99.90
44990;DHT22;30723;51.206;3.326;2023-07-22T09:43:57;22.60;99.90
44990;DHT22;30723;51.206;3.326;2023-07-22T09:46:31;22.10;99.90
44990;DHT22;30723;51.206;3.326;2023-07-22T09:49:20;21.70;99.90
44990;DHT22;30723;51.206;3.326;2023-07-22T09:51:47;21.50;99.90
44990;DHT22;30723;51.206;3.326;2023-07-22T09:54:17;21.30;99.90
44990;DHT22;30723;51.206;3.326;2023-07-22T09:56:46;21.20;99.90
44990;DHT22;30723;51.206;3.326;2023-07-22T09:59:14;21.00;99.90
44990;DHT22;30723;51.206;3.326;2023-07-22T10:01:40;20.80;99.90
44990;DHT22;30723;51.206;3.326;2023-07-22T10:04:07;20.70;99.90
44990;DHT22;30723;51.206;3.326;2023-07-22T10:06:33;20.40;99.90
44990;DHT22;30723;51.206;3.326;2023-07-22T10:09:05;20.30;99.90
44990;DHT22;30723;51.206;3.326;2023-07-22T10:11:35;19.80;99.90
44990;DHT22;30723;51.206;3.326;2023-07-22T10:14:04;19.50;99.90
44990;DHT22;30723;51.206;3.326;2023-07-22T10:16:30;19.20;99.90
44990;DHT22;30723;51.206;3.326;2023-07-22T10:18:59;19.20;99.90
44990;DHT22;30723;51.206;3.326;2023-07-22T10:21:26;19.00;99.90
44990;DHT22;30723;51.206;3.326;2023-07-22T10:23:55;18.80;99.90
44990;DHT22;30723;51.206;3.326;2023-07-22T10:26:22;18.80;99.90
44990;DHT22;30723;51.206;3.326;2023-07-22T10:28:49;19.10;99.90
44990;DHT22;30723;51.206;3.326;2023-07-22T10:31:16;19.30;99.90
44990;DHT22;30723;51.206;3.326;2023-07-22T10:33:49;19.50;99.90
44990;DHT22;30723;51.206;3.326;2023-07-22T10:36:16;19.50;99.90
44990;DHT22;30723;51.206;3.326;2023-07-22T10:38:42;19.60;99.90
44990;DHT22;30723;51.206;3.326;2023-07-22T10:41:16;19.60;99.90
44990;DHT22;30723;51.206;3.326;2023-07-22T10:43:58;19.50;99.90
44990;DHT22;30723;51.206;3.326;2023-07-22T10:46:37;19.50;99.90
44990;DHT22;30723;51.206;3.326;2023-07-22T10:49:17;19.60;99.90
44990;DHT22;30723;51.206;3.326;2023-07-22T10:51:50;19.70;99.90
44990;DHT22;30723;51.206;3.326;2023-07-22T10:54:35;20.00;99.90
44990;DHT22;30723;51.206;3.326;2023-07-22T10:57:25;20.30;99.90
44990;DHT22;30723;51.206;3.326;2023-07-22T10:59:52;20.70;99.90
44990;DHT22;30723;51.206;3.326;2023-07-22T11:04:52;21.30;99.90
44990;DHT22;30723;51.206;3.326;2023-07-22T11:09:56;23.10;99.90
44990;DHT22;30723;51.206;3.326;2023-07-22T11:12:25;24.20;99.90
44990;DHT22;30723;51.206;3.326;2023-07-22T11:15:03;25.50;99.90
44990;DHT22;30723;51.206;3.326;2023-07-22T11:17:32;27.20;99.90
44990;DHT22;30723;51.206;3.326;2023-07-22T11:19:59;28.20;99.90
44990;DHT22;30723;51.206;3.326;2023-07-22T11:22:26;28.80;99.00
44990;DHT22;30723;51.206;3.326;2023-07-22T11:24:54;28.50;96.80
44990;DHT22;30723;51.206;3.326;2023-07-22T11:27:21;28.10;96.80
44990;DHT22;30723;51.206;3.326;2023-07-22T11:29:50;26.90;97.90
44990;DHT22;30723;51.206;3.326;2023-07-22T11:32:19;25.50;99.90
44990;DHT22;30723;51.206;3.326;2023-07-22T11:34:47;24.30;99.90
44990;DHT22;30723;51.206;3.326;2023-07-22T11:37:14;23.60;99.90
44990;DHT22;30723;51.206;3.326;2023-07-22T11:39:41;23.00;99.90
44990;DHT22;30723;51.206;3.326;2023-07-22T11:42:09;22.40;99.90
44990;DHT22;30723;51.206;3.326;2023-07-22T11:44:36;22.00;99.90
44990;DHT22;30723;51.206;3.326;2023-07-22T11:47:07;21.70;99.90
44990;DHT22;30723;51.206;3.326;2023-07-22T11:49:41;21.50;99.90
44990;DHT22;30723;51.206;3.326;2023-07-22T11:52:10;21.30;99.90
44990;DHT22;30723;51.206;3.326;2023-07-22T11:54:41;21.20;99.90
44990;DHT22;30723;51.206;3.326;2023-07-22T12:00:03;21.50;99.90
44990;DHT22;30723;51.206;3.326;2023-07-22T12:02:28;22.00;99.90
44990;DHT22;30723;51.206;3.326;2023-07-22T12:05:01;22.30;99.90
44990;DHT22;30723;51.206;3.326;2023-07-22T12:07:31;23.00;99.90
44990;DHT22;30723;51.206;3.326;2023-07-22T12:10:00;24.60;99.90
44990;DHT22;30723;51.206;3.326;2023-07-22T12:12:40;25.90;99.90
44990;DHT22;30723;51.206;3.326;2023-07-22T12:15:19;27.40;99.90
44990;DHT22;30723;51.206;3.326;2023-07-22T12:17:51;28.40;98.90
44990;DHT22;30723;51.206;3.326;2023-07-22T12:20:18;27.60;98.50
44990;DHT22;30723;51.206;3.326;2023-07-22T12:22:46;26.60;99.90
44990;DHT22;30723;51.206;3.326;2023-07-22T12:25:12;25.60;99.90
44990;DHT22;30723;51.206;3.326;2023-07-22T12:27:38;24.50;99.90
44990;DHT22;30723;51.206;3.326;2023-07-22T12:30:06;23.70;99.90
44990;DHT22;30723;51.206;3.326;2023-07-22T12:32:34;23.00;99.90
44990;DHT22;30723;51.206;3.326;2023-07-22T12:34:59;22.70;99.90
44990;DHT22;30723;51.206;3.326;2023-07-22T12:37:25;22.30;99.90
44990;DHT22;30723;51.206;3.326;2023-07-22T12:39:51;22.20;99.90
44990;DHT22;30723;51.206;3.326;2023-07-22T12:42:18;22.20;99.90
44990;DHT22;30723;51.206;3.326;2023-07-22T12:44:43;22.40;99.90
44990;DHT22;30723;51.206;3.326;2023-07-22T12:47:10;22.90;99.90
44990;DHT22;30723;51.206;3.326;2023-07-22T12:49:37;23.80;99.90
44990;DHT22;30723;51.206;3.326;2023-07-22T12:52:05;24.70;99.90
44990;DHT22;30723;51.206;3.326;2023-07-22T12:54:35;25.10;99.90
44990;DHT22;30723;51.206;3.326;2023-07-22T12:57:02;25.10;99.60
44990;DHT22;30723;51.206;3.326;2023-07-22T12:59:29;25.10;99.90
44990;DHT22;30723;51.206;3.326;2023-07-22T13:01:56;25.10;97.80
44990;DHT22;30723;51.206;3.326;2023-07-22T13:04:25;25.10;96.10
44990;DHT22;30723;51.206;3.326;2023-07-22T13:06:51;24.80;96.00
44990;DHT22;30723;51.206;3.326;2023-07-22T13:09:19;24.90;96.00
44990;DHT22;30723;51.206;3.326;2023-07-22T13:11:46;24.90;95.50
44990;DHT22;30723;51.206;3.326;2023-07-22T13:14:12;24.90;94.60
44990;DHT22;30723;51.206;3.326;2023-07-22T13:16:39;25.10;94.40
44990;DHT22;30723;51.206;3.326;2023-07-22T13:19:05;25.00;93.80
44990;DHT22;30723;51.206;3.326;2023-07-22T13:21:32;24.80;93.50
44990;DHT22;30723;51.206;3.326;2023-07-22T13:23:59;24.50;93.80
44990;DHT22;30723;51.206;3.326;2023-07-22T13:26:25;24.30;94.80
44990;DHT22;30723;51.206;3.326;2023-07-22T13:28:52;24.20;94.90
44990;DHT22;30723;51.206;3.326;2023-07-22T13:31:20;24.10;95.30
44990;DHT22;30723;51.206;3.326;2023-07-22T13:33:47;24.10;95.30
44990;DHT22;30723;51.206;3.326;2023-07-22T13:36:13;24.10;95.70
44990;DHT22;30723;51.206;3.326;2023-07-22T13:38:39;24.70;95.40
44990;DHT22;30723;51.206;3.326;2023-07-22T13:41:05;25.30;94.50
44990;DHT22;30723;51.206;3.326;2023-07-22T13:43:31;26.20;94.10
44990;DHT22;30723;51.206;3.326;2023-07-22T13:45:56;26.60;92.80
44990;DHT22;30723;51.206;3.326;2023-07-22T13:48:24;26.50;92.50
44990;DHT22;30723;51.206;3.326;2023-07-22T13:50:50;26.30;92.50
44990;DHT22;30723;51.206;3.326;2023-07-22T13:53:17;25.90;92.50
44990;DHT22;30723;51.206;3.326;2023-07-22T13:55:44;25.20;93.80
44990;DHT22;30723;51.206;3.326;2023-07-22T13:58:10;24.60;95.30
44990;DHT22;30723;51.206;3.326;2023-07-22T14:00:37;24.30;96.60
44990;DHT22;30723;51.206;3.326;2023-07-22T14:03:03;23.90;97.40
44990;DHT22;30723;51.206;3.326;2023-07-22T14:05:29;23.70;99.20
44990;DHT22;30723;51.206;3.326;2023-07-22T14:07:55;23.40;99.60
44990;DHT22;30723;51.206;3.326;2023-07-22T14:10:21;23.30;99.90
44990;DHT22;30723;51.206;3.326;2023-07-22T14:12:48;23.20;99.90
44990;DHT22;30723;51.206;3.326;2023-07-22T14:15:15;23.20;99.90
44990;DHT22;30723;51.206;3.326;2023-07-22T14:17:42;23.20;99.90
44990;DHT22;30723;51.206;3.326;2023-07-22T14:20:10;23.20;99.90
44990;DHT22;30723;51.206;3.326;2023-07-22T14:22:38;23.20;99.90
44990;DHT22;30723;51.206;3.326;2023-07-22T14:25:04;23.40;99.90
44990;DHT22;30723;51.206;3.326;2023-07-22T14:27:30;23.30;99.90
44990;DHT22;30723;51.206;3.326;2023-07-22T14:29:56;23.30;99.30
44990;DHT22;30723;51.206;3.326;2023-07-22T14:32:22;22.90;99.90
44990;DHT22;30723;51.206;3.326;2023-07-22T14:34:47;22.80;99.90
44990;DHT22;30723;51.206;3.326;2023-07-22T14:37:14;22.80;99.90
44990;DHT22;30723;51.206;3.326;2023-07-22T14:39:41;22.70;99.90
44990;DHT22;30723;51.206;3.326;2023-07-22T14:42:08;22.60;99.90
44990;DHT22;30723;51.206;3.326;2023-07-22T14:44:34;22.40;99.90
44990;DHT22;30723;51.206;3.326;2023-07-22T14:47:02;22.30;99.90
44990;DHT22;30723;51.206;3.326;2023-07-22T14:49:28;22.30;99.90
44990;DHT22;30723;51.206;3.326;2023-07-22T14:51:55;22.20;99.90
44990;DHT22;30723;51.206;3.326;2023-07-22T14:54:21;22.10;99.90
44990;DHT22;30723;51.206;3.326;2023-07-22T14:56:47;21.90;99.90
44990;DHT22;30723;51.206;3.326;2023-07-22T14:59:15;21.70;99.90
44990;DHT22;30723;51.206;3.326;2023-07-22T15:01:41;21.50;99.90
44990;DHT22;30723;51.206;3.326;2023-07-22T15:04:08;21.50;99.90
44990;DHT22;30723;51.206;3.326;2023-07-22T15:06:36;21.40;99.90
44990;DHT22;30723;51.206;3.326;2023-07-22T15:09:03;21.50;99.90
44990;DHT22;30723;51.206;3.326;2023-07-22T15:11:33;21.60;99.90
44990;DHT22;30723;51.206;3.326;2023-07-22T15:14:02;21.70;99.90
44990;DHT22;30723;51.206;3.326;2023-07-22T15:16:29;21.70;99.90
44990;DHT22;30723;51.206;3.326;2023-07-22T15:18:56;21.90;99.90
44990;DHT22;30723;51.206;3.326;2023-07-22T15:21:22;21.80;99.90
44990;DHT22;30723;51.206;3.326;2023-07-22T15:23:48;21.60;99.90
44990;DHT22;30723;51.206;3.326;2023-07-22T15:26:14;21.50;99.90
44990;DHT22;30723;51.206;3.326;2023-07-22T15:28:40;21.50;99.90
44990;DHT22;30723;51.206;3.326;2023-07-22T15:31:26;21.40;99.90
44990;DHT22;30723;51.206;3.326;2023-07-22T15:33:52;21.20;99.90
44990;DHT22;30723;51.206;3.326;2023-07-22T15:36:18;21.10;99.90
44990;DHT22;30723;51.206;3.326;2023-07-22T15:38:45;20.80;99.90
44990;DHT22;30723;51.206;3.326;2023-07-22T15:41:11;20.70;99.90